Time;durP1;ratioP1;P1;durP2;ratioP2;P2;SDS_P1;SDS_P2;PMS_P1;PMS_P2;Temp;Humidity;BMP_temperature;BMP_pressure;BME280_temperature;BME280_humidity;BME280_pressure;Samples;Min_cycle;Max_cycle;Signal;HPM_P1;HPM_P2
2021/06/27 00:01:11;;;;;;;;;4.50;3.50;;;;;;;;3534206;39;113078;-71
2021/06/27 00:03:39;;;;;;;;;2.75;2.75;;;;;;;;3534081;39;113229;-71
2021/06/27 00:06:07;;;;;;;;;4.00;4.00;;;;;;;;3533777;39;113899;-71
2021/06/27 00:08:33;;;;;;;;;4.00;4.00;;;;;;;;3534107;39;112204;-71
2021/06/27 00:11:00;;;;;;;;;3.50;3.50;;;;;;;;3534090;39;113359;-72
2021/06/27 00:13:29;;;;;;;;;4.00;4.00;;;;;;;;3536248;39;113921;-72
2021/06/27 00:15:56;;;;;;;;;4.00;4.00;;;;;;;;3534211;39;113389;-72
2021/06/27 00:18:24;;;;;;;;;5.00;4.50;;;;;;;;3533658;39;113926;-72
2021/06/27 00:20:54;;;;;;;;;4.00;4.00;;;;;;;;3533294;39;112443;-71
2021/06/27 00:23:22;;;;;;;;;4.50;4.00;;;;;;;;3534135;39;113538;-71
2021/06/27 00:25:49;;;;;;;;;6.00;6.00;;;;;;;;3533503;39;114085;-71
2021/06/27 00:28:17;;;;;;;;;4.50;4.00;;;;;;;;3532283;39;111994;-71
2021/06/27 00:30:45;;;;;;;;;5.00;4.00;;;;;;;;3533980;39;113367;-71
2021/06/27 00:33:12;;;;;;;;;5.75;4.25;;;;;;;;3533520;39;113770;-72
2021/06/27 00:35:39;;;;;;;;;4.00;3.50;;;;;;;;3536732;39;111887;-71
2021/06/27 00:38:07;;;;;;;;;7.00;4.00;;;;;;;;3533556;39;114210;-71
2021/06/27 00:40:34;;;;;;;;;5.50;4.00;;;;;;;;3533856;39;111819;-71
2021/06/27 00:43:01;;;;;;;;;4.50;4.00;;;;;;;;3534246;39;113260;-71
2021/06/27 00:45:29;;;;;;;;;5.00;5.00;;;;;;;;3533760;39;113715;-71
2021/06/27 00:47:58;;;;;;;;;4.00;4.00;;;;;;;;3532135;39;111969;-71
2021/06/27 00:50:25;;;;;;;;;3.00;3.00;;;;;;;;3534043;39;113263;-71
2021/06/27 00:52:52;;;;;;;;;4.00;4.00;;;;;;;;3533476;39;113940;-72
2021/06/27 00:55:20;;;;;;;;;3.75;3.00;;;;;;;;3532253;39;112052;-71
2021/06/27 00:57:49;;;;;;;;;5.25;4.00;;;;;;;;3534248;39;113758;-71
2021/06/27 01:00:16;;;;;;;;;5.50;5.50;;;;;;;;3531855;39;111821;-71
2021/06/27 01:02:44;;;;;;;;;5.25;4.75;;;;;;;;3533902;39;113224;-71
2021/06/27 01:05:13;;;;;;;;;4.00;4.00;;;;;;;;3533542;39;113930;-71
2021/06/27 01:07:40;;;;;;;;;4.75;4.75;;;;;;;;3533767;39;111940;-72
2021/06/27 01:10:08;;;;;;;;;6.00;6.00;;;;;;;;3529327;39;112365;-73
2021/06/27 01:12:36;;;;;;;;;6.00;5.25;;;;;;;;3533101;39;113889;-72
2021/06/27 01:15:04;;;;;;;;;5.50;4.50;;;;;;;;3533926;39;111855;-71
2021/06/27 01:17:30;;;;;;;;;4.00;4.00;;;;;;;;3533895;39;113660;-72
2021/06/27 01:19:57;;;;;;;;;5.00;5.00;;;;;;;;3535977;39;113848;-71
2021/06/27 01:22:26;;;;;;;;;4.00;4.00;;;;;;;;3533749;39;113362;-71
2021/06/27 01:24:52;;;;;;;;;4.00;4.00;;;;;;;;3533172;39;113915;-72
2021/06/27 01:27:20;;;;;;;;;4.75;4.75;;;;;;;;3533752;39;112537;-72
2021/06/27 01:29:46;;;;;;;;;4.00;2.75;;;;;;;;3531845;39;113473;-72
2021/06/27 01:32:13;;;;;;;;;3.25;3.25;;;;;;;;3531449;39;113070;-72
2021/06/27 01:34:40;;;;;;;;;5.50;4.25;;;;;;;;3533679;39;113232;-72
2021/06/27 01:37:07;;;;;;;;;7.25;4.00;;;;;;;;3533844;39;113491;-71
2021/06/27 01:39:35;;;;;;;;;3.75;3.75;;;;;;;;3533385;39;113879;-71
2021/06/27 01:42:02;;;;;;;;;5.25;5.00;;;;;;;;3536291;39;111947;-71
2021/06/27 01:44:29;;;;;;;;;4.25;4.00;;;;;;;;3533073;39;114161;-71
2021/06/27 01:46:56;;;;;;;;;5.25;5.25;;;;;;;;3533417;39;112130;-71
2021/06/27 01:49:23;;;;;;;;;5.00;5.00;;;;;;;;3533520;39;113398;-71
2021/06/27 01:51:50;;;;;;;;;5.50;3.25;;;;;;;;3533115;39;114164;-71
2021/06/27 01:54:17;;;;;;;;;4.00;4.00;;;;;;;;3533545;39;111819;-71
2021/06/27 01:56:45;;;;;;;;;3.75;3.00;;;;;;;;3533384;39;113465;-71
2021/06/27 01:59:13;;;;;;;;;3.25;1.50;;;;;;;;3533252;39;114201;-72
2021/06/27 02:01:40;;;;;;;;;6.25;4.00;;;;;;;;3533323;39;112402;-71
2021/06/27 02:04:07;;;;;;;;;3.50;3.00;;;;;;;;3535608;39;113380;-71
2021/06/27 02:06:35;;;;;;;;;4.75;4.75;;;;;;;;3534122;39;112010;-72
2021/06/27 02:09:05;;;;;;;;;5.00;4.00;;;;;;;;3534672;39;113594;-72
2021/06/27 02:11:31;;;;;;;;;2.75;2.00;;;;;;;;3534415;39;114320;-73
2021/06/27 02:13:59;;;;;;;;;4.00;2.75;;;;;;;;3534821;39;113107;-71
2021/06/27 02:16:27;;;;;;;;;5.25;4.75;;;;;;;;3534843;39;113291;-70
2021/06/27 02:18:54;;;;;;;;;6.00;5.00;;;;;;;;3534095;39;114291;-70
2021/06/27 02:21:23;;;;;;;;;4.25;4.25;;;;;;;;3534730;39;113368;-71
2021/06/27 02:23:50;;;;;;;;;6.50;5.50;;;;;;;;3536817;39;113914;-70
2021/06/27 02:26:17;;;;;;;;;3.75;3.75;;;;;;;;3531362;39;111854;-71
2021/06/27 02:28:44;;;;;;;;;3.50;3.50;;;;;;;;3532656;39;112634;-72
2021/06/27 02:31:12;;;;;;;;;3.75;3.75;;;;;;;;3534234;39;114071;-70
2021/06/27 02:33:39;;;;;;;;;6.00;4.00;;;;;;;;3534511;39;111898;-70
2021/06/27 02:36:06;;;;;;;;;6.25;3.25;;;;;;;;3534611;39;113937;-71
2021/06/27 02:38:33;;;;;;;;;7.00;5.00;;;;;;;;3533833;39;113851;-71
2021/06/27 02:41:00;;;;;;;;;6.00;5.00;;;;;;;;3534662;39;112052;-72
2021/06/27 02:43:26;;;;;;;;;5.25;4.75;;;;;;;;3534341;39;113376;-71
2021/06/27 02:45:54;;;;;;;;;2.75;2.75;;;;;;;;3536730;39;114458;-71
2021/06/27 02:48:22;;;;;;;;;4.00;3.50;;;;;;;;3534599;39;113255;-71
2021/06/27 02:50:49;;;;;;;;;4.75;4.00;;;;;;;;3533997;39;114512;-71
2021/06/27 02:53:16;;;;;;;;;6.00;5.25;;;;;;;;3532627;39;111792;-71
2021/06/27 02:55:42;;;;;;;;;4.75;4.75;;;;;;;;3534431;39;113336;-71
2021/06/27 02:58:09;;;;;;;;;3.75;3.75;;;;;;;;3534011;39;114038;-71
2021/06/27 03:00:36;;;;;;;;;3.50;3.25;;;;;;;;3534535;39;112026;-71
2021/06/27 03:03:02;;;;;;;;;6.25;4.75;;;;;;;;3529479;39;113004;-71
2021/06/27 03:05:30;;;;;;;;;3.25;3.00;;;;;;;;3533872;39;116025;-72
2021/06/27 03:07:57;;;;;;;;;6.00;4.00;;;;;;;;3537118;39;112261;-72
2021/06/27 03:10:24;;;;;;;;;5.00;5.00;;;;;;;;3533949;39;113845;-72
2021/06/27 03:12:51;;;;;;;;;4.00;4.00;;;;;;;;3534367;39;112264;-72
2021/06/27 03:15:20;;;;;;;;;6.00;5.75;;;;;;;;3532766;39;112862;-71
2021/06/27 03:17:47;;;;;;;;;9.00;8.00;;;;;;;;3531678;39;114465;-71
2021/06/27 03:20:14;;;;;;;;;6.00;5.50;;;;;;;;3534375;39;112385;-71
2021/06/27 03:22:44;;;;;;;;;6.75;6.75;;;;;;;;3534430;39;113257;-72
2021/06/27 03:25:11;;;;;;;;;6.00;6.00;;;;;;;;3533915;39;113981;-72
2021/06/27 03:27:38;;;;;;;;;8.00;5.50;;;;;;;;3532360;39;111854;-74
2021/06/27 03:30:06;;;;;;;;;5.25;5.25;;;;;;;;3536678;39;113380;-74
2021/06/27 03:32:32;;;;;;;;;8.00;8.00;;;;;;;;3534514;39;112460;-78
2021/06/27 03:34:59;;;;;;;;;6.00;6.00;;;;;;;;3534393;39;113354;-74
2021/06/27 03:37:26;;;;;;;;;7.75;7.75;;;;;;;;3533623;39;114072;-75
2021/06/27 03:39:54;;;;;;;;;6.25;6.25;;;;;;;;3532677;39;112349;-72
2021/06/27 03:42:21;;;;;;;;;6.00;6.00;;;;;;;;3531002;39;113311;-72
2021/06/27 03:44:47;;;;;;;;;7.50;6.25;;;;;;;;3529911;39;114423;-72
2021/06/27 03:47:14;;;;;;;;;9.00;6.50;;;;;;;;3530906;39;112245;-72
2021/06/27 03:49:40;;;;;;;;;6.75;6.00;;;;;;;;3533330;39;114093;-74
2021/06/27 03:52:07;;;;;;;;;8.00;6.25;;;;;;;;3534898;39;113821;-74
2021/06/27 03:54:34;;;;;;;;;7.25;7.25;;;;;;;;3533997;39;113355;-73
2021/06/27 03:57:02;;;;;;;;;4.50;4.50;;;;;;;;3532893;39;113799;-73
2021/06/27 03:59:29;;;;;;;;;5.00;5.00;;;;;;;;3532088;39;111880;-73
2021/06/27 04:01:55;;;;;;;;;6.00;6.00;;;;;;;;3532629;39;114283;-73
2021/06/27 04:04:22;;;;;;;;;7.00;6.25;;;;;;;;3532525;39;114130;-72
2021/06/27 04:06:49;;;;;;;;;6.75;6.00;;;;;;;;3533283;39;112201;-72
2021/06/27 04:09:15;;;;;;;;;6.75;6.75;;;;;;;;3532666;39;113328;-72
2021/06/27 04:11:42;;;;;;;;;5.00;5.00;;;;;;;;3531829;39;113910;-73
2021/06/27 04:14:10;;;;;;;;;6.25;6.00;;;;;;;;3535379;39;112320;-73
2021/06/27 04:16:37;;;;;;;;;6.00;6.00;;;;;;;;3532241;39;114030;-72
2021/06/27 04:19:03;;;;;;;;;6.25;6.25;;;;;;;;3533759;39;111971;-73
2021/06/27 04:21:30;;;;;;;;;8.25;7.25;;;;;;;;3534060;39;113300;-75
2021/06/27 04:23:57;;;;;;;;;8.75;8.25;;;;;;;;3532628;39;114291;-72
2021/06/27 04:26:23;;;;;;;;;7.25;7.25;;;;;;;;3533239;39;111859;-72
2021/06/27 04:28:50;;;;;;;;;6.25;6.25;;;;;;;;3532330;39;113309;-73
2021/06/27 04:31:18;;;;;;;;;7.00;6.00;;;;;;;;3532119;39;114095;-74
2021/06/27 04:33:45;;;;;;;;;7.50;6.00;;;;;;;;3534537;39;111929;-73
2021/06/27 04:36:12;;;;;;;;;7.75;7.75;;;;;;;;3531860;39;113822;-73
2021/06/27 04:38:38;;;;;;;;;7.75;7.75;;;;;;;;3532025;39;112269;-73
2021/06/27 04:41:05;;;;;;;;;7.00;7.00;;;;;;;;3532650;39;113419;-74
2021/06/27 04:43:32;;;;;;;;;6.25;5.50;;;;;;;;3531690;39;113910;-73
2021/06/27 04:45:58;;;;;;;;;6.75;6.25;;;;;;;;3533125;39;111987;-73
2021/06/27 04:48:27;;;;;;;;;6.50;6.50;;;;;;;;3533513;39;113208;-73
2021/06/27 04:50:53;;;;;;;;;5.50;5.50;;;;;;;;3531692;39;114147;-72
2021/06/27 04:53:23;;;;;;;;;7.00;7.00;;;;;;;;3532366;39;111838;-72
2021/06/27 04:55:49;;;;;;;;;8.50;7.00;;;;;;;;3532702;39;113755;-74
2021/06/27 04:58:16;;;;;;;;;6.00;6.00;;;;;;;;3530727;39;112376;-74
2021/06/27 05:00:44;;;;;;;;;6.00;6.00;;;;;;;;3532500;39;113335;-75
2021/06/27 05:03:11;;;;;;;;;5.75;5.75;;;;;;;;3532517;39;113879;-74
2021/06/27 05:05:39;;;;;;;;;7.00;5.75;;;;;;;;3532930;39;111900;-73
2021/06/27 05:08:06;;;;;;;;;6.75;6.75;;;;;;;;3532420;39;113998;-72
2021/06/27 05:10:33;;;;;;;;;8.50;6.25;;;;;;;;3531509;39;113933;-73
2021/06/27 05:12:59;;;;;;;;;6.00;6.00;;;;;;;;3532361;39;112078;-72
2021/06/27 05:15:26;;;;;;;;;8.00;7.00;;;;;;;;3532359;39;113420;-74
2021/06/27 05:17:53;;;;;;;;;7.00;7.00;;;;;;;;3535094;39;113890;-74
2021/06/27 05:20:19;;;;;;;;;8.00;6.75;;;;;;;;3533976;39;113319;-74
2021/06/27 05:22:47;;;;;;;;;7.75;6.50;;;;;;;;3531404;39;113896;-75
2021/06/27 05:25:14;;;;;;;;;6.50;6.50;;;;;;;;3533868;39;112445;-74
2021/06/27 05:27:41;;;;;;;;;7.00;7.00;;;;;;;;3533735;39;113908;-75
2021/06/27 05:30:08;;;;;;;;;8.50;7.75;;;;;;;;3533485;39;114032;-77
2021/06/27 05:32:35;;;;;;;;;8.75;7.25;;;;;;;;3533731;39;111771;-77
2021/06/27 05:35:02;;;;;;;;;7.00;7.00;;;;;;;;3533857;39;113395;-77
2021/06/27 05:37:28;;;;;;;;;7.25;6.00;;;;;;;;3533181;39;113841;-75
2021/06/27 05:39:56;;;;;;;;;7.75;7.00;;;;;;;;3536189;39;112165;-75
2021/06/27 05:42:23;;;;;;;;;9.75;7.75;;;;;;;;3533259;39;113947;-75
2021/06/27 05:44:50;;;;;;;;;8.00;7.00;;;;;;;;3533559;39;111797;-75
2021/06/27 05:47:16;;;;;;;;;5.25;5.25;;;;;;;;3531667;39;113451;-75
2021/06/27 05:49:43;;;;;;;;;8.75;6.75;;;;;;;;3532986;39;114389;-77
2021/06/27 05:52:10;;;;;;;;;8.00;7.50;;;;;;;;3533564;39;111845;-74
2021/06/27 05:54:36;;;;;;;;;7.00;7.00;;;;;;;;3533456;39;113299;-74
2021/06/27 05:57:05;;;;;;;;;9.00;8.00;;;;;;;;3533270;39;113887;-73
2021/06/27 05:59:31;;;;;;;;;10.00;8.50;;;;;;;;3533400;39;112374;-73
2021/06/27 06:01:58;;;;;;;;;7.50;7.25;;;;;;;;3535704;39;113325;-74
2021/06/27 06:04:25;;;;;;;;;7.75;7.00;;;;;;;;3533509;39;112018;-73
2021/06/27 06:06:51;;;;;;;;;8.50;7.75;;;;;;;;3533515;39;113444;-73
2021/06/27 06:09:18;;;;;;;;;8.50;8.00;;;;;;;;3533005;39;113833;-74
2021/06/27 06:11:45;;;;;;;;;7.75;7.75;;;;;;;;3531142;39;112778;-73
2021/06/27 06:14:13;;;;;;;;;5.25;5.25;;;;;;;;3533074;39;113574;-73
2021/06/27 06:16:40;;;;;;;;;7.25;7.25;;;;;;;;3532371;39;113894;-75
2021/06/27 06:19:07;;;;;;;;;8.75;7.75;;;;;;;;3532833;39;112168;-75
2021/06/27 06:21:34;;;;;;;;;9.75;7.75;;;;;;;;3532642;39;113693;-75
2021/06/27 06:24:02;;;;;;;;;8.75;8.00;;;;;;;;3534561;39;111841;-74
2021/06/27 06:26:28;;;;;;;;;8.50;7.75;;;;;;;;3532341;39;113437;-75
2021/06/27 06:28:55;;;;;;;;;7.50;7.00;;;;;;;;3530860;39;113903;-76
2021/06/27 06:31:23;;;;;;;;;9.00;7.25;;;;;;;;3532452;39;112349;-75
2021/06/27 06:33:50;;;;;;;;;9.00;8.00;;;;;;;;3532225;39;113529;-75
2021/06/27 06:36:16;;;;;;;;;5.00;5.00;;;;;;;;3530561;39;114531;-75
2021/06/27 06:38:43;;;;;;;;;9.25;8.00;;;;;;;;3532215;39;112227;-77
2021/06/27 06:41:10;;;;;;;;;8.00;7.75;;;;;;;;3532032;39;113493;-75
2021/06/27 06:43:37;;;;;;;;;8.00;8.00;;;;;;;;3532435;39;114771;-74
2021/06/27 06:46:04;;;;;;;;;7.75;7.75;;;;;;;;3531475;39;113474;-72
2021/06/27 06:48:32;;;;;;;;;8.00;6.75;;;;;;;;3531154;39;114013;-75
2021/06/27 06:50:59;;;;;;;;;6.75;6.75;;;;;;;;3532773;39;113004;-73
2021/06/27 06:53:25;;;;;;;;;8.25;8.25;;;;;;;;3534057;39;113292;-73
2021/06/27 06:55:52;;;;;;;;;8.50;8.50;;;;;;;;3533907;39;114180;-73
2021/06/27 06:58:18;;;;;;;;;7.75;7.00;;;;;;;;3534260;39;112414;-73
2021/06/27 07:00:45;;;;;;;;;8.50;8.50;;;;;;;;3534370;39;114050;-72
2021/06/27 07:03:12;;;;;;;;;7.50;7.50;;;;;;;;3533708;39;114370;-72
2021/06/27 07:05:40;;;;;;;;;7.25;7.25;;;;;;;;3537113;39;111950;-71
2021/06/27 07:08:07;;;;;;;;;8.50;8.50;;;;;;;;3533759;39;113929;-73
2021/06/27 07:10:34;;;;;;;;;5.25;5.25;;;;;;;;3534222;39;111859;-73
2021/06/27 07:13:00;;;;;;;;;10.67;8.33;;;;;;;;3534180;39;113418;-72
2021/06/27 07:15:27;;;;;;;;;8.67;7.67;;;;;;;;3534129;39;114506;-73
2021/06/27 07:17:54;;;;;;;;;8.67;8.67;;;;;;;;3534279;39;112110;-71
2021/06/27 07:20:20;;;;;;;;;7.00;6.33;;;;;;;;3534206;39;113548;-71
2021/06/27 07:22:48;;;;;;;;;9.00;9.00;;;;;;;;3531725;39;114009;-72
2021/06/27 07:25:15;;;;;;;;;7.33;7.33;;;;;;;;3534306;39;111952;-72
2021/06/27 07:27:42;;;;;;;;;7.00;7.00;;;;;;;;3536330;39;113372;-72
2021/06/27 07:30:09;;;;;;;;;9.33;8.00;;;;;;;;3534096;39;112005;-71
2021/06/27 07:32:36;;;;;;;;;5.33;5.33;;;;;;;;3534081;39;113382;-72
2021/06/27 07:35:03;;;;;;;;;8.67;8.67;;;;;;;;3532392;39;114410;-72
2021/06/27 07:37:30;;;;;;;;;10.33;9.00;;;;;;;;3533354;39;112311;-71
2021/06/27 07:39:58;;;;;;;;;7.33;7.00;;;;;;;;3531176;39;112475;-73
2021/06/27 07:42:24;;;;;;;;;13.67;12.00;;;;;;;;3533835;39;113841;-82
2021/06/27 07:44:51;;;;;;;;;8.00;7.00;;;;;;;;3534798;39;111824;-82
2021/06/27 07:47:18;;;;;;;;;10.67;9.00;;;;;;;;3534628;39;113977;-78
2021/06/27 07:49:44;;;;;;;;;6.00;6.00;;;;;;;;3536444;39;113897;-77
2021/06/27 07:52:11;;;;;;;;;6.67;6.33;;;;;;;;3531690;39;112308;-82
2021/06/27 07:54:38;;;;;;;;;8.00;6.00;;;;;;;;3533541;39;114302;-78
2021/06/27 07:57:07;;;;;;;;;9.00;6.00;;;;;;;;3533995;39;112682;-78
2021/06/27 07:59:34;;;;;;;;;9.33;9.33;;;;;;;;3531376;39;112300;-80
2021/06/27 08:02:00;;;;;;;;;8.33;8.00;;;;;;;;3534025;39;114056;-81
2021/06/27 08:04:27;;;;;;;;;7.00;7.00;;;;;;;;3534240;39;111972;-77
2021/06/27 08:06:54;;;;;;;;;7.33;7.33;;;;;;;;3534246;39;114313;-75
2021/06/27 08:09:20;;;;;;;;;6.33;6.00;;;;;;;;3533961;39;114068;-74
2021/06/27 08:11:47;;;;;;;;;7.00;7.00;;;;;;;;3535497;39;111885;-82
2021/06/27 08:14:15;;;;;;;;;8.00;6.00;;;;;;;;3534283;39;113935;-87
2021/06/27 08:16:42;;;;;;;;;7.00;7.00;;;;;;;;3534858;39;111955;-89
2021/06/27 08:19:08;;;;;;;;;7.00;7.00;;;;;;;;3533539;39;113726;-86
2021/06/27 08:21:35;;;;;;;;;8.00;6.00;;;;;;;;3533550;39;113885;-80
2021/06/27 08:24:02;;;;;;;;;8.00;7.00;;;;;;;;3534441;39;111978;-79
2021/06/27 08:26:28;;;;;;;;;7.00;6.00;;;;;;;;3534350;39;113428;-76
2021/06/27 08:28:55;;;;;;;;;6.00;6.00;;;;;;;;3533409;39;113880;-78
2021/06/27 08:31:23;;;;;;;;;6.00;6.00;;;;;;;;3534626;39;112977;-76
2021/06/27 08:33:50;;;;;;;;;7.00;7.00;;;;;;;;3531696;39;114288;-77
2021/06/27 08:36:16;;;;;;;;;8.00;7.00;;;;;;;;3530699;39;112018;-80
2021/06/27 08:38:43;;;;;;;;;8.67;7.33;;;;;;;;3533770;39;114190;-80
2021/06/27 08:41:10;;;;;;;;;8.67;7.67;;;;;;;;3533524;39;113913;-82
2021/06/27 08:43:36;;;;;;;;;9.50;8.50;;;;;;;;3532490;39;112397;-82
2021/06/27 08:46:07;;;;;;;;;10.00;9.00;;;;;;;;3532801;39;113248;-81
2021/06/27 08:48:38;;;;;;;;;9.33;7.67;;;;;;;;3532764;39;113892;-80
2021/06/27 08:51:05;;;;;;;;;8.00;8.00;;;;;;;;3534132;39;112210;-75
2021/06/27 08:53:33;;;;;;;;;8.00;8.00;;;;;;;;3536116;39;113905;-77
2021/06/27 08:56:06;;;;;;;;;8.25;8.00;;;;;;;;3534179;39;111824;-79
2021/06/27 08:58:33;;;;;;;;;6.50;6.50;;;;;;;;3534242;39;113450;-79
2021/06/27 09:01:00;;;;;;;;;9.25;8.00;;;;;;;;3533630;39;113856;-78
2021/06/27 09:03:27;;;;;;;;;5.25;5.00;;;;;;;;3533869;39;112181;-79
2021/06/27 09:05:56;;;;;;;;;7.25;7.25;;;;;;;;3534286;39;113416;-79
2021/06/27 09:08:23;;;;;;;;;8.00;7.00;;;;;;;;3533391;39;112942;-79
2021/06/27 09:10:49;;;;;;;;;7.75;7.00;;;;;;;;3534280;39;111803;-79
2021/06/27 09:13:16;;;;;;;;;8.00;8.00;;;;;;;;3532200;39;113341;-78
2021/06/27 09:15:43;;;;;;;;;7.25;7.25;;;;;;;;3534869;39;112969;-79
2021/06/27 09:18:11;;;;;;;;;8.75;7.75;;;;;;;;3531885;39;113320;-79
2021/06/27 09:20:38;;;;;;;;;7.75;6.50;;;;;;;;3533359;39;113942;-80
2021/06/27 09:23:07;;;;;;;;;7.00;7.00;;;;;;;;3529926;39;111992;-79
2021/06/27 09:25:34;;;;;;;;;8.00;6.25;;;;;;;;3532087;39;113341;-80
2021/06/27 09:28:05;;;;;;;;;7.25;7.25;;;;;;;;3531487;39;114709;-80
2021/06/27 09:30:32;;;;;;;;;9.00;7.75;;;;;;;;3529869;39;111944;-80
2021/06/27 09:33:00;;;;;;;;;7.75;7.75;;;;;;;;3530039;39;113310;-79
2021/06/27 09:35:47;;;;;;;;;8.67;7.67;;;;;;;;3533521;39;114059;-80
2021/06/27 09:38:31;;;;;;;;;8.00;6.00;;;;;;;;3532523;39;111929;-79
2021/06/27 09:40:59;;;;;;;;;8.00;6.67;;;;;;;;3530102;39;113871;-79
2021/06/27 09:43:27;;;;;;;;;8.00;8.00;;;;;;;;3531442;39;112264;-78
2021/06/27 09:45:56;;;;;;;;;7.33;7.33;;;;;;;;3529798;39;113348;-78
2021/06/27 09:48:22;;;;;;;;;8.67;7.00;;;;;;;;3531179;39;113863;-79
2021/06/27 09:50:49;;;;;;;;;8.67;8.67;;;;;;;;3531960;39;112434;-79
2021/06/27 09:53:47;;;;;;;;;15.33;14.33;;;;;;;;3533699;39;113301;-79
2021/06/27 09:56:15;;;;;;;;;8.33;8.33;;;;;;;;3521417;39;113964;-79
2021/06/27 09:58:54;;;;;;;;;8.00;6.00;;;;;;;;3531006;39;112526;-79
2021/06/27 10:01:23;;;;;;;;;7.00;7.00;;;;;;;;3534289;39;113450;-79
2021/06/27 10:03:54;;;;;;;;;6.00;6.00;;;;;;;;3532002;39;111860;-79
2021/06/27 10:06:21;;;;;;;;;5.00;5.00;;;;;;;;3531818;39;113336;-79
2021/06/27 10:08:47;;;;;;;;;6.00;4.67;;;;;;;;3533404;39;114015;-79
2021/06/27 10:11:17;;;;;;;;;11.00;11.00;;;;;;;;3533565;39;111910;-79
2021/06/27 10:13:47;;;;;;;;;5.00;5.00;;;;;;;;3533480;39;113355;-80
2021/06/27 10:16:16;;;;;;;;;5.00;4.33;;;;;;;;3532881;39;113875;-80
2021/06/27 10:18:43;;;;;;;;;6.00;6.00;;;;;;;;3533361;39;112057;-80
2021/06/27 10:21:11;;;;;;;;;6.00;4.67;;;;;;;;3529163;39;112769;-80
2021/06/27 10:23:37;;;;;;;;;4.67;4.67;;;;;;;;3535586;39;113880;-80
2021/06/27 10:26:05;;;;;;;;;5.00;5.00;;;;;;;;3533400;39;113664;-80
2021/06/27 10:28:34;;;;;;;;;5.00;5.00;;;;;;;;3532103;39;114332;-80
2021/06/27 10:31:01;;;;;;;;;4.00;4.00;;;;;;;;3534719;39;111797;-80
2021/06/27 10:33:28;;;;;;;;;7.00;5.33;;;;;;;;3534754;39;113364;-80
2021/06/27 10:35:55;;;;;;;;;3.67;3.00;;;;;;;;3534433;39;114134;-80
2021/06/27 10:38:24;;;;;;;;;3.33;3.33;;;;;;;;3534990;39;112134;-79
2021/06/27 10:40:52;;;;;;;;;3.00;3.00;;;;;;;;3534893;39;113452;-79
2021/06/27 10:43:19;;;;;;;;;4.67;4.67;;;;;;;;3537047;39;113937;-80
2021/06/27 10:46:00;;;;;;;;;4.00;4.00;;;;;;;;3530974;39;112377;-79
2021/06/27 10:48:40;;;;;;;;;12.00;10.00;;;;;;;;3532647;39;113590;-77
2021/06/27 10:51:08;;;;;;;;;3.00;3.00;;;;;;;;3532810;39;113048;-80
2021/06/27 10:53:53;;;;;;;;;3.33;3.33;;;;;;;;3534649;39;113367;-81
2021/06/27 10:56:51;;;;;;;;;4.00;4.00;;;;;;;;3533024;39;113943;-85
2021/06/27 10:59:32;;;;;;;;;19.00;15.67;;;;;;;;3532988;39;111878;-86
2021/06/27 11:02:16;;;;;;;;;5.00;3.00;;;;;;;;3531876;39;115763;-76
2021/06/27 11:04:43;;;;;;;;;4.00;4.00;;;;;;;;3533867;39;114060;-75
2021/06/27 11:07:30;;;;;;;;;4.33;3.00;;;;;;;;3534734;39;112482;-75
2021/06/27 11:10:21;;;;;;;;;25.00;24.00;;;;;;;;3531226;39;113875;-81
2021/06/27 11:13:07;;;;;;;;;4.67;4.33;;;;;;;;3533646;39;112482;-79
2021/06/27 11:15:35;;;;;;;;;9.33;9.33;;;;;;;;3532973;39;113523;-80
2021/06/27 11:18:02;;;;;;;;;6.33;6.33;;;;;;;;3532810;39;114010;-81
2021/06/27 11:20:29;;;;;;;;;4.00;3.00;;;;;;;;3534644;39;112613;-81
2021/06/27 11:22:57;;;;;;;;;6.00;6.00;;;;;;;;3534545;39;113304;-78
2021/06/27 11:25:35;;;;;;;;;7.33;7.33;;;;;;;;3534720;39;114197;-83
2021/06/27 11:28:34;;;;;;;;;11.00;9.33;;;;;;;;3532186;39;112064;-80
2021/06/27 11:31:15;;;;;;;;;3.33;3.00;;;;;;;;3535508;39;113304;-78
2021/06/27 11:33:42;;;;;;;;;3.33;3.33;;;;;;;;3534635;39;111757;-78
2021/06/27 11:36:24;;;;;;;;;5.00;5.00;;;;;;;;3534275;39;113398;-78
2021/06/27 11:38:51;;;;;;;;;4.00;4.00;;;;;;;;3531687;39;114306;-78
2021/06/27 11:41:32;;;;;;;;;5.00;3.00;;;;;;;;3534391;39;112379;-78
2021/06/27 11:44:01;;;;;;;;;4.00;4.00;;;;;;;;3533050;39;113217;-81
2021/06/27 11:46:29;;;;;;;;;5.00;5.00;;;;;;;;3533902;39;113907;-81
2021/06/27 11:48:56;;;;;;;;;3.67;3.67;;;;;;;;3534723;39;111855;-79
2021/06/27 11:51:33;;;;;;;;;5.00;5.00;;;;;;;;3532293;39;113394;-79
2021/06/27 11:54:00;;;;;;;;;4.00;3.67;;;;;;;;3535498;39;113912;-81
2021/06/27 11:56:27;;;;;;;;;4.00;4.00;;;;;;;;3533970;39;112826;-79
2021/06/27 12:04:47;;;;;;;;;2.67;2.67;;;;;;;;3568304;39;112190;-80
2021/06/27 12:07:40;;;;;;;;;4.67;4.67;;;;;;;;3558640;39;113753;-79
2021/06/27 12:10:19;;;;;;;;;4.00;4.00;;;;;;;;3532814;39;111910;-78
2021/06/27 12:12:46;;;;;;;;;4.00;4.00;;;;;;;;3556060;39;113130;-79
2021/06/27 12:15:27;;;;;;;;;5.00;4.00;;;;;;;;3555600;39;114219;-79
2021/06/27 12:17:55;;;;;;;;;4.00;4.00;;;;;;;;3555841;39;112181;-79
2021/06/27 12:20:23;;;;;;;;;6.00;4.00;;;;;;;;3553987;39;113488;-78
2021/06/27 12:22:51;;;;;;;;;4.00;4.00;;;;;;;;3555342;39;115329;-79
2021/06/27 12:25:23;;;;;;;;;2.00;2.00;;;;;;;;3559484;39;112190;-77
2021/06/27 12:27:50;;;;;;;;;6.00;4.67;;;;;;;;3554483;39;114030;-77
2021/06/27 12:30:17;;;;;;;;;5.33;4.33;;;;;;;;3557016;39;112400;-77
2021/06/27 12:32:59;;;;;;;;;4.00;4.00;;;;;;;;3554652;39;112467;-75
2021/06/27 12:35:27;;;;;;;;;3.00;3.00;;;;;;;;3556660;39;114839;-76
2021/06/27 12:37:54;;;;;;;;;4.00;4.00;;;;;;;;3555298;39;112726;-76
2021/06/27 12:40:21;;;;;;;;;8.33;6.33;;;;;;;;3554383;39;114537;-76
2021/06/27 12:42:47;;;;;;;;;3.33;3.33;;;;;;;;3554866;39;113807;-76
2021/06/27 12:45:15;;;;;;;;;4.00;4.00;;;;;;;;3554543;39;112610;-75
2021/06/27 12:47:42;;;;;;;;;5.00;4.00;;;;;;;;3558698;39;113677;-81
2021/06/27 12:50:09;;;;;;;;;5.00;3.00;;;;;;;;3555888;39;112078;-76
2021/06/27 12:52:37;;;;;;;;;2.00;2.00;;;;;;;;3555893;39;113019;-75
2021/06/27 12:55:10;;;;;;;;;5.67;4.00;;;;;;;;3553701;39;113869;-76
2021/06/27 12:57:37;;;;;;;;;5.00;5.00;;;;;;;;3555190;39;112057;-75
2021/06/27 13:00:04;;;;;;;;;3.67;2.00;;;;;;;;3556083;39;113294;-77
2021/06/27 13:02:35;;;;;;;;;3.33;3.33;;;;;;;;3554594;39;113809;-74
2021/06/27 13:05:04;;;;;;;;;6.00;4.33;;;;;;;;3557808;39;112226;-77
2021/06/27 13:07:32;;;;;;;;;3.00;3.00;;;;;;;;3557067;39;113227;-75
2021/06/27 13:10:03;;;;;;;;;4.00;3.33;;;;;;;;3559050;39;114069;-78
2021/06/27 13:12:29;;;;;;;;;3.00;3.00;;;;;;;;3555299;39;113244;-76
2021/06/27 13:15:09;;;;;;;;;5.33;4.67;;;;;;;;3551157;39;114156;-76
2021/06/27 13:17:41;;;;;;;;;5.00;4.00;;;;;;;;3548308;39;112192;-74
2021/06/27 13:20:12;;;;;;;;;4.67;4.00;;;;;;;;3550096;39;113393;-81
2021/06/27 13:22:54;;;;;;;;;4.33;4.00;;;;;;;;3545273;39;113155;-75
2021/06/27 13:25:31;;;;;;;;;5.00;5.00;;;;;;;;3546922;39;112030;-75
2021/06/27 13:27:57;;;;;;;;;4.00;4.00;;;;;;;;3551043;39;113264;-75
2021/06/27 13:30:24;;;;;;;;;3.67;3.67;;;;;;;;3549166;39;113927;-75
2021/06/27 13:33:05;;;;;;;;;4.33;4.33;;;;;;;;3551650;39;112415;-79
2021/06/27 13:35:32;;;;;;;;;4.00;4.00;;;;;;;;3549225;39;114034;-78
2021/06/27 13:37:59;;;;;;;;;3.33;3.33;;;;;;;;3550299;39;111913;-77
2021/06/27 13:40:26;;;;;;;;;3.00;3.00;;;;;;;;3546419;39;113432;-78
2021/06/27 13:42:54;;;;;;;;;4.67;3.00;;;;;;;;3549695;39;113600;-75
2021/06/27 13:45:22;;;;;;;;;4.00;4.00;;;;;;;;3549491;39;111928;-76
2021/06/27 13:47:49;;;;;;;;;5.00;3.67;;;;;;;;3549310;39;112727;-78
2021/06/27 13:50:16;;;;;;;;;4.00;4.00;;;;;;;;3549650;39;113921;-79
2021/06/27 13:52:46;;;;;;;;;4.00;3.67;;;;;;;;3548820;39;112601;-76
2021/06/27 13:55:14;;;;;;;;;4.00;4.00;;;;;;;;3550264;39;112223;-80
2021/06/27 13:57:41;;;;;;;;;4.00;4.00;;;;;;;;3549134;39;113311;-79
2021/06/27 14:00:11;;;;;;;;;4.00;4.00;;;;;;;;3547907;39;113260;-81
2021/06/27 14:02:38;;;;;;;;;3.67;3.00;;;;;;;;3547916;39;113870;-78
2021/06/27 14:05:05;;;;;;;;;3.00;3.00;;;;;;;;3549113;39;111915;-76
2021/06/27 14:07:32;;;;;;;;;5.00;3.33;;;;;;;;3549032;39;113642;-78
2021/06/27 14:09:59;;;;;;;;;3.67;3.67;;;;;;;;3550411;39;114216;-76
2021/06/27 14:12:25;;;;;;;;;3.67;3.67;;;;;;;;3549018;39;111847;-77
2021/06/27 14:14:52;;;;;;;;;5.00;5.00;;;;;;;;3550709;39;113379;-77
2021/06/27 14:17:20;;;;;;;;;3.33;3.33;;;;;;;;3550964;39;112151;-82
2021/06/27 14:19:47;;;;;;;;;3.33;3.33;;;;;;;;3548689;39;113828;-79
2021/06/27 14:22:13;;;;;;;;;3.00;3.00;;;;;;;;3548693;39;113897;-84
2021/06/27 14:24:40;;;;;;;;;3.00;3.00;;;;;;;;3548035;39;112369;-83
2021/06/27 14:27:07;;;;;;;;;5.00;5.00;;;;;;;;3546674;39;112729;-84
2021/06/27 14:29:35;;;;;;;;;3.00;3.00;;;;;;;;3547699;39;113882;-80
2021/06/27 14:32:06;;;;;;;;;2.67;2.67;;;;;;;;3545798;39;111862;-79
2021/06/27 14:34:34;;;;;;;;;4.00;4.00;;;;;;;;3547446;39;113259;-78
2021/06/27 14:37:01;;;;;;;;;4.67;4.67;;;;;;;;3551411;39;114391;-81
2021/06/27 14:39:27;;;;;;;;;5.33;4.67;;;;;;;;3547757;39;113577;-91
2021/06/27 14:41:54;;;;;;;;;4.00;4.00;;;;;;;;3545504;39;114053;-81